createdAt,value
2023-01-18T00:01:13.038Z,29.50
2023-01-18T00:03:43.117Z,29.46
2023-01-18T00:06:12.302Z,29.47
2023-01-18T00:08:43.278Z,29.50
2023-01-18T00:11:13.331Z,29.50
2023-01-18T00:13:42.730Z,29.50
2023-01-18T00:16:15.978Z,29.55
2023-01-18T00:18:45.348Z,29.55
2023-01-18T00:21:14.583Z,29.60
2023-01-18T00:23:43.890Z,29.55
2023-01-18T00:26:13.591Z,29.57
2023-01-18T00:28:45.589Z,29.55
2023-01-18T00:31:15.602Z,29.48
2023-01-18T00:33:45.481Z,29.55
2023-01-18T00:36:14.721Z,29.44
2023-01-18T00:38:43.984Z,29.44
2023-01-18T00:41:13.395Z,29.60
2023-01-18T00:43:42.562Z,29.54
2023-01-18T00:46:15.588Z,29.48
2023-01-18T00:48:45.194Z,29.58
2023-01-18T00:51:15.278Z,29.56
2023-01-18T00:53:47.091Z,29.62
2023-01-18T00:56:17.605Z,29.55
2023-01-18T00:58:47.010Z,29.58
2023-01-18T01:01:16.366Z,29.53
2023-01-18T01:04:03.350Z,29.57
2023-01-18T01:06:46.377Z,29.54
2023-01-18T01:09:16.640Z,29.63
2023-01-18T01:11:47.304Z,29.51
2023-01-18T01:14:33.904Z,29.58
2023-01-18T01:17:22.276Z,29.64
2023-01-18T01:20:08.951Z,29.60
2023-01-18T01:22:57.143Z,29.58
2023-01-18T01:25:43.912Z,29.66
2023-01-18T01:28:13.215Z,29.62
2023-01-18T01:30:43.254Z,29.69
2023-01-18T01:33:12.515Z,29.62
2023-01-18T01:35:42.506Z,29.54
2023-01-18T01:38:12.600Z,29.59
2023-01-18T01:40:42.537Z,29.68
2023-01-18T01:43:13.795Z,29.65
2023-01-18T01:45:43.164Z,29.64
2023-01-18T01:48:12.441Z,29.69
2023-01-18T01:50:42.763Z,29.59
2023-01-18T01:53:12.575Z,29.55
2023-01-18T01:55:43.465Z,29.64
2023-01-18T01:58:13.065Z,29.65
2023-01-18T02:00:42.570Z,29.64
2023-01-18T02:03:13.585Z,29.62
2023-01-18T02:05:43.829Z,29.67
2023-01-18T02:08:13.168Z,29.65
2023-01-18T02:10:42.783Z,29.62
2023-01-18T02:13:12.702Z,29.58
2023-01-18T02:15:55.991Z,29.67
2023-01-18T02:18:29.865Z,29.68
2023-01-18T02:21:06.804Z,29.68
2023-01-18T02:23:49.661Z,29.64
2023-01-18T02:26:29.511Z,29.76
2023-01-18T02:29:00.423Z,29.40
2023-01-18T02:31:30.776Z,29.40
2023-01-18T02:34:01.433Z,29.43
2023-01-18T02:36:34.911Z,29.49
2023-01-18T02:39:10.701Z,29.57
2023-01-18T02:42:04.246Z,29.66
2023-01-18T02:44:51.949Z,29.76
2023-01-18T02:47:21.172Z,29.85
2023-01-18T02:49:50.420Z,29.93
2023-01-18T02:52:36.067Z,29.97
2023-01-18T02:55:05.399Z,30.00
2023-01-18T02:57:34.760Z,30.08
2023-01-18T03:00:04.193Z,30.12
2023-01-18T03:02:33.463Z,30.18
2023-01-18T03:05:02.816Z,30.25
2023-01-18T03:07:33.610Z,30.29
2023-01-18T03:10:03.474Z,30.25
2023-01-18T03:12:49.040Z,30.21
2023-01-18T03:15:25.816Z,30.20
2023-01-18T03:17:56.348Z,30.19
2023-01-18T03:20:29.747Z,30.17
2023-01-18T03:23:17.632Z,30.14
2023-01-18T03:25:53.478Z,30.15
2023-01-18T03:28:47.676Z,30.15
2023-01-18T03:31:35.696Z,30.09
2023-01-18T03:34:15.391Z,30.10
2023-01-18T03:36:45.765Z,30.10
2023-01-18T03:39:17.004Z,30.14
2023-01-18T03:41:46.881Z,30.12
2023-01-18T03:44:17.618Z,30.11
2023-01-18T03:46:46.804Z,30.09
2023-01-18T03:49:15.910Z,30.13
2023-01-18T03:51:49.618Z,30.12
2023-01-18T03:54:25.001Z,30.13
2023-01-18T03:56:55.974Z,30.16
2023-01-18T03:59:45.820Z,30.12
2023-01-18T04:02:15.098Z,30.12
2023-01-18T04:04:44.364Z,30.08
2023-01-18T04:07:13.747Z,30.06
2023-01-18T04:09:42.901Z,30.08
2023-01-18T04:12:12.872Z,30.09
2023-01-18T04:14:42.194Z,30.12
2023-01-18T04:17:11.896Z,30.08
2023-01-18T04:19:42.137Z,30.09
2023-01-18T04:22:11.975Z,30.12
2023-01-18T04:24:41.962Z,30.03
2023-01-18T04:27:12.283Z,30.09
2023-01-18T04:29:42.326Z,30.05
2023-01-18T04:32:12.132Z,30.09
2023-01-18T04:34:41.900Z,30.05
2023-01-18T04:37:12.084Z,29.99
2023-01-18T04:39:42.103Z,30.03
2023-01-18T04:42:12.036Z,30.02
2023-01-18T04:44:42.073Z,30.01
2023-01-18T04:47:12.104Z,30.02
2023-01-18T04:49:42.277Z,29.94
2023-01-18T04:52:12.073Z,30.00
2023-01-18T04:54:42.040Z,29.97
2023-01-18T04:57:11.113Z,29.96
2023-01-18T04:59:42.084Z,29.98
2023-01-18T05:02:12.279Z,29.94
2023-01-18T05:04:42.848Z,29.96
2023-01-18T05:07:12.132Z,30.00
2023-01-18T05:09:42.119Z,29.96
2023-01-18T05:12:12.160Z,29.97
2023-01-18T05:14:44.519Z,29.92
2023-01-18T05:17:14.457Z,29.93
2023-01-18T05:19:43.539Z,29.93
2023-01-18T05:22:12.795Z,29.96
2023-01-18T05:24:42.175Z,29.90
2023-01-18T05:27:13.495Z,29.92
2023-01-18T05:29:42.591Z,29.93
2023-01-18T05:32:12.357Z,29.92
2023-01-18T05:34:42.135Z,29.91
2023-01-18T05:37:12.301Z,29.92
2023-01-18T05:39:42.308Z,29.93
2023-01-18T05:42:12.250Z,29.92
2023-01-18T05:44:42.267Z,29.89
2023-01-18T05:47:12.257Z,29.92
2023-01-18T05:49:42.258Z,29.98
2023-01-18T05:52:12.612Z,29.97
2023-01-18T05:54:42.212Z,29.96
2023-01-18T05:57:12.655Z,29.88
2023-01-18T05:59:42.289Z,29.92
2023-01-18T06:02:11.509Z,29.84
2023-01-18T06:04:41.325Z,29.90
2023-01-18T06:07:11.426Z,29.88
2023-01-18T06:09:42.894Z,29.90
2023-01-18T06:12:12.235Z,29.94
2023-01-18T06:14:42.363Z,29.93
2023-01-18T06:17:12.475Z,29.97
2023-01-18T06:19:42.441Z,29.92
2023-01-18T06:22:11.816Z,29.94
2023-01-18T06:24:41.351Z,29.94
2023-01-18T06:27:11.399Z,29.95
2023-01-18T06:29:41.483Z,29.92
2023-01-18T06:32:11.492Z,29.92
2023-01-18T06:34:41.429Z,29.96
2023-01-18T06:37:11.565Z,29.93
2023-01-18T06:39:41.333Z,29.89
2023-01-18T06:42:11.486Z,29.97
2023-01-18T06:44:42.333Z,29.87
2023-01-18T06:47:12.367Z,29.94
2023-01-18T06:49:42.371Z,29.91
2023-01-18T06:52:12.491Z,29.93
2023-01-18T06:54:42.404Z,29.86
2023-01-18T06:57:12.938Z,29.85
2023-01-18T06:59:42.502Z,29.92
2023-01-18T07:02:13.356Z,29.92
2023-01-18T07:04:44.676Z,29.95
2023-01-18T07:07:14.286Z,29.92
2023-01-18T07:09:43.490Z,29.91
2023-01-18T07:12:13.300Z,29.88
2023-01-18T07:14:44.937Z,29.89
2023-01-18T07:17:14.134Z,29.92
2023-01-18T07:19:43.368Z,29.92
2023-01-18T07:22:13.373Z,29.93
2023-01-18T07:24:43.350Z,29.91
2023-01-18T07:27:13.275Z,29.90
2023-01-18T07:29:43.360Z,29.90
2023-01-18T07:32:12.663Z,29.87
2023-01-18T07:34:42.409Z,29.88
2023-01-18T07:37:12.539Z,29.90
2023-01-18T07:39:42.417Z,29.95
2023-01-18T07:42:13.505Z,29.88
2023-01-18T07:44:43.457Z,29.86
2023-01-18T07:47:12.634Z,29.90
2023-01-18T07:49:42.553Z,29.87
2023-01-18T07:52:12.565Z,29.90
2023-01-18T07:54:42.437Z,29.90
2023-01-18T07:57:12.519Z,29.91
2023-01-18T07:59:42.880Z,29.89
2023-01-18T08:02:14.503Z,29.85
2023-01-18T08:04:44.201Z,29.84
2023-01-18T08:07:15.065Z,29.88
2023-01-18T08:09:44.380Z,29.87
2023-01-18T08:12:18.256Z,29.86
2023-01-18T08:14:47.624Z,29.84
2023-01-18T08:17:16.943Z,29.86
2023-01-18T08:19:46.144Z,29.88
2023-01-18T08:22:15.368Z,29.84
2023-01-18T08:24:45.095Z,29.87
2023-01-18T08:27:14.671Z,29.85
2023-01-18T08:29:43.855Z,29.86
2023-01-18T08:32:13.525Z,29.85
2023-01-18T08:34:43.588Z,29.82
2023-01-18T08:37:13.460Z,29.85
2023-01-18T08:39:43.479Z,29.86
2023-01-18T08:42:13.737Z,29.88
2023-01-18T08:44:43.509Z,29.89
2023-01-18T08:47:13.500Z,29.86
2023-01-18T08:49:43.506Z,29.86
2023-01-18T08:52:14.450Z,29.86
2023-01-18T08:54:43.705Z,29.86
2023-01-18T08:57:13.465Z,29.84
2023-01-18T08:59:43.545Z,29.84
2023-01-18T09:02:13.615Z,29.85
2023-01-18T09:04:45.215Z,29.87
2023-01-18T09:07:14.475Z,29.85
2023-01-18T09:09:43.673Z,29.85
2023-01-18T09:12:14.013Z,29.92
2023-01-18T09:14:43.774Z,29.87
2023-01-18T09:17:13.096Z,29.87
2023-01-18T09:19:42.752Z,29.83
2023-01-18T09:22:13.080Z,29.86
2023-01-18T09:24:43.659Z,29.85
2023-01-18T09:27:14.808Z,29.84
2023-01-18T09:29:44.049Z,29.87
2023-01-18T09:32:13.325Z,29.85
2023-01-18T09:34:49.571Z,29.87
2023-01-18T09:37:23.636Z,29.86
2023-01-18T09:39:52.979Z,29.84
2023-01-18T09:42:31.816Z,29.84
2023-01-18T09:45:00.920Z,29.84
2023-01-18T09:47:31.594Z,29.83
2023-01-18T09:50:04.315Z,29.84
2023-01-18T09:52:53.230Z,29.86
2023-01-18T09:55:24.019Z,29.83
2023-01-18T09:58:17.897Z,29.83
2023-01-18T10:01:31.688Z,29.85
2023-01-18T10:10:02.408Z,29.83
2023-01-18T10:15:32.627Z,29.88
2023-01-18T10:18:02.213Z,29.88
2023-01-18T10:20:48.701Z,29.88
2023-01-18T10:23:33.509Z,29.85
2023-01-18T10:26:10.234Z,29.84
2023-01-18T10:28:51.234Z,29.90
2023-01-18T10:34:18.288Z,29.94
2023-01-18T10:36:48.183Z,29.92
2023-01-18T10:39:18.797Z,29.96
2023-01-18T10:41:48.043Z,29.93
2023-01-18T10:44:17.537Z,29.91
2023-01-18T10:46:47.188Z,29.94
2023-01-18T10:49:34.567Z,29.98
2023-01-18T10:52:23.649Z,29.96
2023-01-18T10:55:01.422Z,29.90
2023-01-18T10:57:31.837Z,29.89
2023-01-18T11:00:01.039Z,29.85
2023-01-18T11:02:31.833Z,29.94
2023-01-18T11:05:02.396Z,29.89
2023-01-18T11:07:31.596Z,29.96
2023-01-18T11:10:04.438Z,29.92
2023-01-18T11:12:44.066Z,29.99
2023-01-18T11:15:18.090Z,29.97
2023-01-18T11:17:58.703Z,29.97
2023-01-18T11:20:45.767Z,29.91
2023-01-18T11:23:19.110Z,29.92
2023-01-18T11:25:52.964Z,29.99
2023-01-18T11:28:29.634Z,29.96
2023-01-18T11:31:09.996Z,29.96
2023-01-18T11:33:41.349Z,29.96
2023-01-18T11:36:11.432Z,29.93
2023-01-18T11:38:42.282Z,29.93
2023-01-18T11:41:19.036Z,29.95
2023-01-18T11:44:08.543Z,29.99
2023-01-18T11:46:42.566Z,29.98
2023-01-18T11:49:13.581Z,30.01
2023-01-18T11:51:45.775Z,30.00
2023-01-18T11:54:26.528Z,30.00
2023-01-18T11:56:58.864Z,29.96
2023-01-18T11:59:37.528Z,29.95
2023-01-18T12:02:24.606Z,29.97
2023-01-18T12:05:01.396Z,29.99
2023-01-18T12:07:35.006Z,30.01
2023-01-18T12:10:04.313Z,30.00
2023-01-18T12:12:50.081Z,29.97
2023-01-18T12:15:23.687Z,29.94
2023-01-18T12:18:13.085Z,29.98
2023-01-18T12:20:35.279Z,29.96
2023-01-18T12:23:05.929Z,29.93
2023-01-18T12:25:39.833Z,30.01
2023-01-18T12:28:10.489Z,30.13
2023-01-18T12:30:44.830Z,30.28
2023-01-18T12:33:38.265Z,30.49
2023-01-18T12:35:59.228Z,30.98
2023-01-18T12:38:29.996Z,31.32
2023-01-18T12:41:12.890Z,31.42
2023-01-18T12:44:02.073Z,31.33
2023-01-18T12:46:35.492Z,31.37
2023-01-18T12:49:08.888Z,31.33
2023-01-18T12:51:38.282Z,31.32
2023-01-18T12:54:08.795Z,31.35
2023-01-18T12:56:39.536Z,31.35
2023-01-18T12:59:09.693Z,31.36
2023-01-18T13:01:43.453Z,31.41
2023-01-18T13:04:17.253Z,31.44
2023-01-18T13:06:46.556Z,31.46
2023-01-18T13:09:17.302Z,31.49
2023-01-18T13:11:46.446Z,31.47
2023-01-18T13:14:33.838Z,31.54
2023-01-18T13:17:04.397Z,31.57
2023-01-18T13:19:34.948Z,31.58
2023-01-18T13:22:14.631Z,31.60
2023-01-18T13:25:01.860Z,31.60
2023-01-18T13:27:32.212Z,31.66
2023-01-18T13:30:02.751Z,31.67
2023-01-18T13:32:32.834Z,31.67
2023-01-18T13:35:19.717Z,31.68
2023-01-18T13:37:44.136Z,31.69
2023-01-18T13:40:30.013Z,31.70
2023-01-18T13:42:59.568Z,31.76
2023-01-18T13:45:32.013Z,31.66
2023-01-18T13:48:08.562Z,31.52
2023-01-18T13:50:39.224Z,31.48
2023-01-18T13:53:18.850Z,31.39
2023-01-18T13:55:58.396Z,31.38
2023-01-18T13:58:28.053Z,31.33
2023-01-18T14:00:58.819Z,31.32
2023-01-18T14:03:28.911Z,31.30
2023-01-18T14:06:01.159Z,31.30
2023-01-18T14:08:31.658Z,31.27
2023-01-18T14:11:02.689Z,31.26
2023-01-18T14:13:36.130Z,31.21
2023-01-18T14:16:05.942Z,31.22
2023-01-18T14:18:35.405Z,31.18
2023-01-18T14:21:09.060Z,31.17
2023-01-18T14:23:42.273Z,31.16
2023-01-18T14:26:13.142Z,31.15
2023-01-18T14:28:49.250Z,31.15
2023-01-18T14:31:22.792Z,31.12
2023-01-18T14:33:52.068Z,31.13
2023-01-18T14:36:22.550Z,31.14
2023-01-18T14:38:53.276Z,31.10
2023-01-18T14:41:22.495Z,31.11
2023-01-18T14:43:52.636Z,31.13
2023-01-18T14:46:25.476Z,31.11
2023-01-18T14:48:55.439Z,31.10
2023-01-18T14:51:25.128Z,31.10
2023-01-18T14:54:01.621Z,31.08
2023-01-18T14:56:31.235Z,31.08
2023-01-18T14:59:01.016Z,31.07
2023-01-18T15:01:40.993Z,31.03
2023-01-18T15:04:21.354Z,31.03
2023-01-18T15:06:50.933Z,31.01
2023-01-18T15:09:20.580Z,30.98
2023-01-18T15:11:50.187Z,30.97
2023-01-18T15:14:28.996Z,30.96
2023-01-18T15:16:58.395Z,30.96
2023-01-18T15:19:35.148Z,31.03
2023-01-18T15:22:07.597Z,31.01
2023-01-18T15:24:39.051Z,30.93
2023-01-18T15:27:08.354Z,30.92
2023-01-18T15:29:37.537Z,30.90
2023-01-18T15:32:14.314Z,30.89
2023-01-18T15:34:45.068Z,30.88
2023-01-18T15:37:18.756Z,30.85
2023-01-18T15:39:56.882Z,30.99
2023-01-18T15:42:27.685Z,30.92
2023-01-18T15:44:56.822Z,30.90
2023-01-18T15:47:26.634Z,30.90
2023-01-18T15:49:57.206Z,30.87
2023-01-18T15:52:36.952Z,30.85
2023-01-18T15:55:07.616Z,30.86
2023-01-18T15:57:37.369Z,30.85
2023-01-18T16:00:06.937Z,30.88
2023-01-18T16:02:36.302Z,30.87
2023-01-18T16:05:13.258Z,30.88
2023-01-18T16:07:46.116Z,30.85
2023-01-18T16:10:27.172Z,30.86
2023-01-18T16:12:58.045Z,30.86
2023-01-18T16:15:31.666Z,30.90
2023-01-18T16:18:02.620Z,30.90
2023-01-18T16:20:32.209Z,30.90
2023-01-18T16:23:06.284Z,30.90
2023-01-18T16:25:35.542Z,30.90
2023-01-18T16:28:05.145Z,30.92
2023-01-18T16:30:39.097Z,30.92
2023-01-18T16:33:11.480Z,30.93
2023-01-18T16:35:42.684Z,30.97
2023-01-18T16:38:13.053Z,30.95
2023-01-18T16:40:44.052Z,31.04
2023-01-18T16:43:30.255Z,31.01
2023-01-18T16:45:59.918Z,31.03
2023-01-18T16:48:29.264Z,31.04
2023-01-18T16:50:59.792Z,31.06
2023-01-18T16:53:30.495Z,30.99
2023-01-18T16:55:59.743Z,31.06
2023-01-18T16:58:29.593Z,31.02
2023-01-18T17:01:08.160Z,31.03
2023-01-18T17:03:37.523Z,31.07
2023-01-18T17:06:07.139Z,31.06
2023-01-18T17:08:36.741Z,31.08
2023-01-18T17:11:06.376Z,31.06
2023-01-18T17:13:35.689Z,31.08
2023-01-18T17:16:05.038Z,31.10
2023-01-18T17:18:34.589Z,31.10
2023-01-18T17:21:03.889Z,31.12
2023-01-18T17:23:33.145Z,31.13
2023-01-18T17:26:02.615Z,31.15
2023-01-18T17:28:31.898Z,31.12
2023-01-18T17:31:01.512Z,31.11
2023-01-18T17:33:31.418Z,31.13
2023-01-18T17:36:00.703Z,30.97
2023-01-18T17:40:59.984Z,30.81
2023-01-18T17:43:34.047Z,30.89
2023-01-18T17:46:02.127Z,30.96
2023-01-18T17:48:31.476Z,31.07
2023-01-18T17:51:00.710Z,31.13
2023-01-18T17:53:30.108Z,31.21
2023-01-18T17:55:59.362Z,31.25
2023-01-18T17:58:28.620Z,31.32
2023-01-18T18:00:58.092Z,31.38
2023-01-18T18:03:27.332Z,31.43
2023-01-18T18:06:00.587Z,31.47
2023-01-18T18:08:30.005Z,31.49
2023-01-18T18:11:00.659Z,31.54
2023-01-18T18:13:30.270Z,31.57
2023-01-18T18:15:59.675Z,31.61
2023-01-18T18:18:29.004Z,31.65
2023-01-18T18:20:58.774Z,31.70
2023-01-18T18:23:28.360Z,31.71
2023-01-18T18:26:18.084Z,31.75
2023-01-18T18:28:47.588Z,31.63
2023-01-18T18:31:17.434Z,31.56
2023-01-18T18:33:46.728Z,31.52
2023-01-18T18:36:17.353Z,31.50
2023-01-18T18:38:46.735Z,31.48
2023-01-18T18:41:16.063Z,31.46
2023-01-18T18:43:45.659Z,31.45
2023-01-18T18:46:15.762Z,31.45
2023-01-18T18:48:45.659Z,31.42
2023-01-18T18:51:15.528Z,31.42
2023-01-18T18:53:45.617Z,31.41
2023-01-18T18:56:15.755Z,31.41
2023-01-18T18:58:44.965Z,31.39
2023-01-18T19:01:21.675Z,31.39
2023-01-18T19:03:51.658Z,31.38
2023-01-18T19:06:20.841Z,31.37
2023-01-18T19:08:50.148Z,31.33
2023-01-18T19:11:19.531Z,31.34
2023-01-18T19:13:49.700Z,31.35
2023-01-18T19:16:19.311Z,31.35
2023-01-18T19:18:48.713Z,31.31
2023-01-18T19:21:19.121Z,31.34
2023-01-18T19:23:48.829Z,31.33
2023-01-18T19:26:19.214Z,31.31
2023-01-18T19:28:48.775Z,31.30
2023-01-18T19:31:18.229Z,31.30
2023-01-18T19:33:47.527Z,31.32
2023-01-18T19:36:18.443Z,31.32
2023-01-18T19:38:52.696Z,31.32
2023-01-18T19:41:19.393Z,31.27
2023-01-18T19:43:50.376Z,31.32
2023-01-18T19:46:20.992Z,31.28
2023-01-18T19:48:50.128Z,31.26
2023-01-18T19:51:23.257Z,31.26
2023-01-18T19:53:50.135Z,31.29
2023-01-18T19:56:19.380Z,31.26
2023-01-18T19:58:48.735Z,31.25
2023-01-18T20:01:26.789Z,31.25
2023-01-18T20:03:48.660Z,31.23
2023-01-18T20:06:18.511Z,31.28
2023-01-18T20:08:47.705Z,31.30
2023-01-18T20:11:17.012Z,31.26
2023-01-18T20:13:47.604Z,31.25
2023-01-18T20:16:16.887Z,31.24
2023-01-18T20:18:46.455Z,31.28
2023-01-18T20:21:16.109Z,31.26
2023-01-18T20:23:46.076Z,31.24
2023-01-18T20:26:20.008Z,31.24
2023-01-18T20:28:47.399Z,31.24
2023-01-18T20:31:16.620Z,31.25
2023-01-18T20:33:46.611Z,31.25
2023-01-18T20:36:15.982Z,31.23
2023-01-18T20:38:46.107Z,31.24
2023-01-18T20:41:16.091Z,31.25
2023-01-18T20:43:46.215Z,31.21
2023-01-18T20:46:15.734Z,31.23
2023-01-18T20:48:49.497Z,31.22
2023-01-18T20:51:19.060Z,31.22
2023-01-18T20:53:48.245Z,31.24
2023-01-18T20:56:28.928Z,31.24
2023-01-18T20:58:48.249Z,31.23
2023-01-18T21:01:17.514Z,31.24
2023-01-18T21:03:47.110Z,31.25
2023-01-18T21:06:17.056Z,31.24
2023-01-18T21:08:46.240Z,31.27
2023-01-18T21:11:16.936Z,31.30
2023-01-18T21:13:46.082Z,31.29
2023-01-18T21:16:15.467Z,31.24
2023-01-18T21:18:45.726Z,31.30
2023-01-18T21:21:15.987Z,31.28
2023-01-18T21:23:45.965Z,31.27
2023-01-18T21:26:16.128Z,31.30
2023-01-18T21:28:48.575Z,31.31
2023-01-18T21:31:17.894Z,31.30
2023-01-18T21:33:47.212Z,31.29
2023-01-18T21:36:18.291Z,31.29
2023-01-18T21:38:50.065Z,31.32
2023-01-18T21:41:36.752Z,31.32
2023-01-18T21:44:23.530Z,31.32
2023-01-18T21:46:52.936Z,31.32
2023-01-18T21:52:27.509Z,31.33
2023-01-18T21:54:56.756Z,31.35
2023-01-18T21:57:26.219Z,31.36
2023-01-18T21:59:56.172Z,31.37
2023-01-18T22:02:25.517Z,31.37
2023-01-18T22:05:04.890Z,31.37
2023-01-18T22:07:35.199Z,31.37
2023-01-18T22:10:06.391Z,31.39
2023-01-18T22:12:36.432Z,31.38
2023-01-18T22:15:06.137Z,31.39
2023-01-18T22:17:36.827Z,31.39
2023-01-18T22:20:06.223Z,31.41
2023-01-18T22:22:35.637Z,31.40
2023-01-18T22:25:07.555Z,31.40
2023-01-18T22:27:36.868Z,31.42
2023-01-18T22:30:06.711Z,31.42
2023-01-18T22:32:35.995Z,31.45
2023-01-18T22:35:05.291Z,31.44
2023-01-18T22:37:34.659Z,31.44
2023-01-18T22:40:03.837Z,31.44
2023-01-18T22:42:33.235Z,31.45
2023-01-18T22:45:02.561Z,31.45
2023-01-18T22:47:31.866Z,31.43
2023-01-18T22:50:02.235Z,31.43
2023-01-18T22:52:33.088Z,31.46
2023-01-18T22:55:02.372Z,31.45
2023-01-18T22:57:31.585Z,31.47
2023-01-18T23:00:00.797Z,31.46
2023-01-18T23:02:30.057Z,31.46
2023-01-18T23:04:59.242Z,31.46
2023-01-18T23:07:28.780Z,31.46
2023-01-18T23:09:58.119Z,31.44
2023-01-18T23:12:28.987Z,31.45
2023-01-18T23:15:15.893Z,31.44
2023-01-18T23:17:45.974Z,31.44
2023-01-18T23:20:15.837Z,31.44
2023-01-18T23:22:46.008Z,31.44
2023-01-18T23:25:15.486Z,31.43
2023-01-18T23:27:45.412Z,31.43
2023-01-18T23:30:15.569Z,31.42
2023-01-18T23:32:45.538Z,31.45
2023-01-18T23:35:15.322Z,31.41
2023-01-18T23:37:45.508Z,31.40
2023-01-18T23:40:33.298Z,31.41
2023-01-18T23:43:19.794Z,31.39
2023-01-18T23:46:07.140Z,31.38
2023-01-18T23:48:54.070Z,31.35
2023-01-18T23:51:40.637Z,31.37
2023-01-18T23:54:19.683Z,31.38
2023-01-18T23:56:48.951Z,31.38
2023-01-18T23:59:18.253Z,31.36
